LVSTV SAAV-SADF
Flight info
| Callsign | LVSTV |
|---|---|
| Flight time | 1h 25m |
| Altitude | 9000 |
| Route | ROS DCT MULTA DCT SNT DCT TRINI |
| Aircraft | PA24/L-SDGRY/S |
Departure
| Time | 2026-04-30 00:01 |
|---|---|
| Airport | Sauce Viejo Airport (SAAV) |
Arrival
| Time | 2026-04-30 01:26 |
|---|---|
| Airport | San Fernando Airport (SADF) |
| Time | Latitude | Longitude | Altitude | Speed | Heading |
|---|---|---|---|---|---|
| 2026-04-29 23:46 | -31.70994 | -60.80641 | 59 ft | 0 kts | 232° |
| 2026-04-29 23:56 | -31.70997 | -60.80646 | 55 ft | 6 kts | 232° |
| 2026-04-29 23:56 | -31.70996 | -60.80742 | 58 ft | 17 kts | 289° |
| 2026-04-29 23:56 | -31.70950 | -60.80892 | 57 ft | 22 kts | 290° |
| 2026-04-29 23:56 | -31.70906 | -60.81020 | 60 ft | 14 kts | 313° |
| 2026-04-29 23:57 | -31.70795 | -60.80989 | 59 ft | 21 kts | 24° |
| 2026-04-29 23:57 | -31.70650 | -60.80915 | 62 ft | 25 kts | 24° |
| 2026-04-29 23:57 | -31.70486 | -60.80832 | 60 ft | 23 kts | 22° |
| 2026-04-29 23:57 | -31.70358 | -60.80768 | 62 ft | 15 kts | 25° |
| 2026-04-29 23:58 | -31.70244 | -60.80709 | 62 ft | 21 kts | 22° |
| 2026-04-29 23:58 | -31.70151 | -60.80640 | 59 ft | 8 kts | 14° |
| 2026-04-29 23:58 | -31.70144 | -60.80667 | 59 ft | 7 kts | 195° |
| 2026-04-29 23:58 | -31.70183 | -60.80685 | 62 ft | 0 kts | 203° |
| 2026-04-30 00:00 | -31.70186 | -60.80687 | 62 ft | 6 kts | 203° |
| 2026-04-30 00:00 | -31.70444 | -60.80807 | 63 ft | 73 kts | 199° |
| 2026-04-30 00:00 | -31.70955 | -60.81045 | 277 ft | 84 kts | 206° |
| 2026-04-30 00:00 | -31.71540 | -60.81279 | 597 ft | 86 kts | 189° |
| 2026-04-30 00:01 | -31.72180 | -60.81297 | 812 ft | 99 kts | 191° |
| 2026-04-30 00:01 | -31.72835 | -60.81372 | 1150 ft | 95 kts | 178° |
| 2026-04-30 00:01 | -31.73536 | -60.81320 | 1348 ft | 103 kts | 180° |
| 2026-04-30 00:01 | -31.74277 | -60.81350 | 1571 ft | 109 kts | 185° |
| 2026-04-30 00:02 | -31.75016 | -60.81376 | 1842 ft | 106 kts | 180° |
| 2026-04-30 00:02 | -31.75760 | -60.81348 | 2071 ft | 109 kts | 178° |
| 2026-04-30 00:02 | -31.76505 | -60.81284 | 2356 ft | 105 kts | 175° |
| 2026-04-30 00:02 | -31.77244 | -60.81188 | 2578 ft | 108 kts | 174° |
| 2026-04-30 00:03 | -31.77980 | -60.81078 | 2832 ft | 106 kts | 173° |
| 2026-04-30 00:03 | -31.78715 | -60.80966 | 3044 ft | 107 kts | 172° |
| 2026-04-30 00:03 | -31.79446 | -60.80851 | 3295 ft | 105 kts | 173° |
| 2026-04-30 00:03 | -31.80173 | -60.80755 | 3502 ft | 106 kts | 175° |
| 2026-04-30 00:04 | -31.80902 | -60.80690 | 3733 ft | 105 kts | 177° |
| 2026-04-30 00:04 | -31.81632 | -60.80654 | 3935 ft | 105 kts | 180° |
| 2026-04-30 00:04 | -31.82364 | -60.80647 | 4159 ft | 105 kts | 182° |
| 2026-04-30 00:04 | -31.83093 | -60.80635 | 4363 ft | 106 kts | 175° |
| 2026-04-30 00:05 | -31.83780 | -60.80251 | 4513 ft | 112 kts | 149° |
| 2026-04-30 00:05 | -31.84389 | -60.79769 | 4795 ft | 106 kts | 150° |
| 2026-04-30 00:05 | -31.85021 | -60.79250 | 4924 ft | 113 kts | 150° |
| 2026-04-30 00:05 | -31.85659 | -60.78760 | 5183 ft | 108 kts | 153° |
| 2026-04-30 00:06 | -31.86319 | -60.78310 | 5402 ft | 110 kts | 156° |
| 2026-04-30 00:06 | -31.86987 | -60.77916 | 5681 ft | 107 kts | 160° |
| 2026-04-30 00:06 | -31.87678 | -60.77564 | 5897 ft | 109 kts | 162° |
| 2026-04-30 00:06 | -31.88379 | -60.77250 | 6165 ft | 107 kts | 164° |
| 2026-04-30 00:07 | -31.89086 | -60.76954 | 6378 ft | 109 kts | 165° |
| 2026-04-30 00:07 | -31.89795 | -60.76659 | 6610 ft | 107 kts | 165° |
| 2026-04-30 00:07 | -31.90492 | -60.76319 | 6817 ft | 110 kts | 159° |
| 2026-04-30 00:07 | -31.91178 | -60.75918 | 7038 ft | 109 kts | 161° |
| 2026-04-30 00:08 | -31.91865 | -60.75531 | 7241 ft | 110 kts | 162° |
| 2026-04-30 00:08 | -31.92560 | -60.75144 | 7450 ft | 110 kts | 162° |
| 2026-04-30 00:08 | -31.93259 | -60.74770 | 7649 ft | 111 kts | 164° |
| 2026-04-30 00:08 | -31.93962 | -60.74375 | 7847 ft | 112 kts | 162° |
| 2026-04-30 00:09 | -31.94657 | -60.73973 | 8050 ft | 112 kts | 162° |
| 2026-04-30 00:09 | -31.95359 | -60.73566 | 8239 ft | 113 kts | 163° |
| 2026-04-30 00:09 | -31.96060 | -60.73161 | 8451 ft | 112 kts | 163° |
| 2026-04-30 00:09 | -31.96766 | -60.72759 | 8611 ft | 115 kts | 164° |
| 2026-04-30 00:10 | -31.97514 | -60.72352 | 8748 ft | 118 kts | 165° |
| 2026-04-30 00:10 | -31.98241 | -60.71957 | 8986 ft | 114 kts | 165° |
| 2026-04-30 00:10 | -31.98981 | -60.71558 | 9113 ft | 118 kts | 166° |
| 2026-04-30 00:10 | -31.99720 | -60.71159 | 9321 ft | 115 kts | 166° |
| 2026-04-30 00:11 | -32.00512 | -60.70746 | 9229 ft | 134 kts | 166° |
| 2026-04-30 00:11 | -32.01354 | -60.70312 | 9327 ft | 136 kts | 166° |
| 2026-04-30 00:11 | -32.02258 | -60.69848 | 9260 ft | 146 kts | 165° |
| 2026-04-30 00:11 | -32.03226 | -60.69347 | 9105 ft | 157 kts | 164° |
| 2026-04-30 00:12 | -32.04235 | -60.68805 | 8981 ft | 163 kts | 162° |
| 2026-04-30 00:12 | -32.05235 | -60.68235 | 8966 ft | 161 kts | 161° |
| 2026-04-30 00:12 | -32.06228 | -60.67638 | 8976 ft | 158 kts | 160° |
| 2026-04-30 00:12 | -32.07193 | -60.67047 | 8998 ft | 155 kts | 161° |
| 2026-04-30 00:13 | -32.08155 | -60.66465 | 8998 ft | 155 kts | 161° |
| 2026-04-30 00:13 | -32.09115 | -60.65902 | 9002 ft | 154 kts | 162° |
| 2026-04-30 00:13 | -32.10080 | -60.65354 | 9002 ft | 153 kts | 163° |
| 2026-04-30 00:13 | -32.11046 | -60.64821 | 9001 ft | 152 kts | 163° |
| 2026-04-30 00:14 | -32.12010 | -60.64303 | 9000 ft | 152 kts | 163° |
| 2026-04-30 00:14 | -32.12896 | -60.63638 | 9000 ft | 154 kts | 154° |
| 2026-04-30 00:14 | -32.13786 | -60.62913 | 8999 ft | 155 kts | 155° |
| 2026-04-30 00:14 | -32.14686 | -60.62215 | 9000 ft | 154 kts | 156° |
| 2026-04-30 00:15 | -32.15588 | -60.61535 | 9002 ft | 153 kts | 157° |
| 2026-04-30 00:15 | -32.16493 | -60.60870 | 9003 ft | 153 kts | 158° |
| 2026-04-30 00:15 | -32.17389 | -60.60221 | 9003 ft | 153 kts | 158° |
| 2026-04-30 00:15 | -32.18307 | -60.59561 | 9003 ft | 153 kts | 158° |
| 2026-04-30 00:16 | -32.19202 | -60.58916 | 8999 ft | 152 kts | 158° |
| 2026-04-30 00:16 | -32.20107 | -60.58262 | 9000 ft | 153 kts | 158° |
| 2026-04-30 00:16 | -32.21012 | -60.57603 | 9000 ft | 153 kts | 158° |
| 2026-04-30 00:16 | -32.21914 | -60.56942 | 9001 ft | 153 kts | 158° |
| 2026-04-30 00:17 | -32.22816 | -60.56277 | 9000 ft | 153 kts | 158° |
| 2026-04-30 00:17 | -32.23718 | -60.55610 | 9001 ft | 153 kts | 157° |
| 2026-04-30 00:17 | -32.24620 | -60.54942 | 9001 ft | 153 kts | 157° |
| 2026-04-30 00:17 | -32.25522 | -60.54275 | 9001 ft | 153 kts | 157° |
| 2026-04-30 00:18 | -32.26422 | -60.53603 | 9000 ft | 153 kts | 157° |
| 2026-04-30 00:18 | -32.27319 | -60.52927 | 9001 ft | 153 kts | 157° |
| 2026-04-30 00:18 | -32.28219 | -60.52254 | 9004 ft | 153 kts | 157° |
| 2026-04-30 00:18 | -32.29122 | -60.51589 | 9001 ft | 153 kts | 158° |
| 2026-04-30 00:19 | -32.30031 | -60.50926 | 9004 ft | 153 kts | 158° |
| 2026-04-30 00:19 | -32.30936 | -60.50271 | 9004 ft | 153 kts | 158° |
| 2026-04-30 00:19 | -32.31849 | -60.49608 | 9007 ft | 154 kts | 158° |
| 2026-04-30 00:19 | -32.32760 | -60.48939 | 9004 ft | 154 kts | 158° |
| 2026-04-30 00:20 | -32.33673 | -60.48267 | 9004 ft | 155 kts | 158° |
| 2026-04-30 00:20 | -32.34588 | -60.47593 | 9003 ft | 154 kts | 158° |
| 2026-04-30 00:20 | -32.35497 | -60.46923 | 9003 ft | 154 kts | 158° |
| 2026-04-30 00:20 | -32.36408 | -60.46250 | 9003 ft | 154 kts | 158° |
| 2026-04-30 00:21 | -32.37310 | -60.45589 | 9004 ft | 154 kts | 158° |
| 2026-04-30 00:21 | -32.38228 | -60.44920 | 9004 ft | 155 kts | 158° |
| 2026-04-30 00:21 | -32.39145 | -60.44248 | 9004 ft | 155 kts | 158° |
| 2026-04-30 00:21 | -32.40061 | -60.43572 | 9003 ft | 155 kts | 157° |
| 2026-04-30 00:22 | -32.40975 | -60.42893 | 9002 ft | 155 kts | 157° |
| 2026-04-30 00:22 | -32.41890 | -60.42211 | 9003 ft | 155 kts | 157° |
| 2026-04-30 00:22 | -32.42494 | -60.41762 | 9003 ft | 155 kts | 157° |
| 2026-04-30 00:22 | -32.43715 | -60.40853 | 9001 ft | 155 kts | 157° |
| 2026-04-30 00:23 | -32.44631 | -60.40173 | 9001 ft | 155 kts | 157° |
| 2026-04-30 00:23 | -32.45235 | -60.39726 | 9001 ft | 155 kts | 157° |
| 2026-04-30 00:23 | -32.46447 | -60.38829 | 9001 ft | 155 kts | 158° |
| 2026-04-30 00:23 | -32.47064 | -60.38375 | 9001 ft | 155 kts | 158° |
| 2026-04-30 00:24 | -32.48274 | -60.37482 | 9003 ft | 155 kts | 158° |
| 2026-04-30 00:24 | -32.49190 | -60.36808 | 9004 ft | 155 kts | 158° |
| 2026-04-30 00:24 | -32.49796 | -60.36361 | 9004 ft | 155 kts | 157° |
| 2026-04-30 00:24 | -32.50709 | -60.35685 | 9003 ft | 155 kts | 157° |
| 2026-04-30 00:25 | -32.51623 | -60.35008 | 9010 ft | 155 kts | 157° |
| 2026-04-30 00:25 | -32.52544 | -60.34322 | 9003 ft | 157 kts | 157° |
| 2026-04-30 00:25 | -32.53467 | -60.33631 | 9001 ft | 157 kts | 157° |
| 2026-04-30 00:25 | -32.54388 | -60.32945 | 9001 ft | 156 kts | 158° |
| 2026-04-30 00:26 | -32.55311 | -60.32261 | 9002 ft | 156 kts | 158° |
| 2026-04-30 00:26 | -32.56231 | -60.31580 | 9003 ft | 156 kts | 158° |
| 2026-04-30 00:26 | -32.57152 | -60.30899 | 9003 ft | 156 kts | 158° |
| 2026-04-30 00:26 | -32.58072 | -60.30221 | 9003 ft | 156 kts | 158° |
| 2026-04-30 00:27 | -32.58991 | -60.29541 | 9003 ft | 156 kts | 158° |
| 2026-04-30 00:27 | -32.59910 | -60.28860 | 9003 ft | 156 kts | 158° |
| 2026-04-30 00:27 | -32.60829 | -60.28177 | 9003 ft | 156 kts | 158° |
| 2026-04-30 00:27 | -32.61749 | -60.27493 | 9003 ft | 156 kts | 158° |
| 2026-04-30 00:28 | -32.62669 | -60.26807 | 9006 ft | 156 kts | 158° |
| 2026-04-30 00:28 | -32.63586 | -60.26126 | 9006 ft | 156 kts | 158° |
| 2026-04-30 00:28 | -32.64506 | -60.25444 | 9006 ft | 156 kts | 158° |
| 2026-04-30 00:28 | -32.65424 | -60.24763 | 9006 ft | 156 kts | 158° |
| 2026-04-30 00:29 | -32.66343 | -60.24078 | 9006 ft | 156 kts | 158° |
| 2026-04-30 00:29 | -32.67250 | -60.23402 | 9004 ft | 156 kts | 158° |
| 2026-04-30 00:29 | -32.68174 | -60.22714 | 9004 ft | 156 kts | 158° |
| 2026-04-30 00:29 | -32.69095 | -60.22028 | 9003 ft | 156 kts | 158° |
| 2026-04-30 00:30 | -32.70006 | -60.21350 | 9006 ft | 156 kts | 158° |
| 2026-04-30 00:30 | -32.70926 | -60.20664 | 9006 ft | 156 kts | 158° |
| 2026-04-30 00:30 | -32.71844 | -60.19979 | 9006 ft | 156 kts | 158° |
| 2026-04-30 00:30 | -32.72763 | -60.19295 | 9006 ft | 156 kts | 158° |
| 2026-04-30 00:31 | -32.73684 | -60.18609 | 9007 ft | 156 kts | 158° |
| 2026-04-30 00:31 | -32.74602 | -60.17926 | 9006 ft | 156 kts | 158° |
| 2026-04-30 00:31 | -32.75523 | -60.17242 | 9006 ft | 156 kts | 158° |
| 2026-04-30 00:31 | -32.76449 | -60.16562 | 9006 ft | 157 kts | 158° |
| 2026-04-30 00:32 | -32.77382 | -60.15881 | 9004 ft | 157 kts | 157° |
| 2026-04-30 00:32 | -32.78311 | -60.15193 | 9006 ft | 157 kts | 157° |
| 2026-04-30 00:32 | -32.79238 | -60.14498 | 9006 ft | 157 kts | 156° |
| 2026-04-30 00:32 | -32.80164 | -60.13798 | 9006 ft | 158 kts | 156° |
| 2026-04-30 00:33 | -32.81091 | -60.13096 | 9006 ft | 158 kts | 156° |
| 2026-04-30 00:33 | -32.82003 | -60.12404 | 9006 ft | 158 kts | 156° |
| 2026-04-30 00:33 | -32.82929 | -60.11705 | 9003 ft | 158 kts | 156° |
| 2026-04-30 00:33 | -32.83859 | -60.11005 | 9003 ft | 157 kts | 157° |
| 2026-04-30 00:34 | -32.84790 | -60.10310 | 9005 ft | 157 kts | 157° |
| 2026-04-30 00:34 | -32.85718 | -60.09619 | 9003 ft | 157 kts | 157° |
| 2026-04-30 00:34 | -32.86646 | -60.08931 | 9004 ft | 157 kts | 157° |
| 2026-04-30 00:34 | -32.87575 | -60.08241 | 9004 ft | 157 kts | 157° |
| 2026-04-30 00:35 | -32.88504 | -60.07549 | 9002 ft | 157 kts | 157° |
| 2026-04-30 00:35 | -32.89430 | -60.06858 | 9003 ft | 157 kts | 157° |
| 2026-04-30 00:35 | -32.90357 | -60.06164 | 9004 ft | 157 kts | 157° |
| 2026-04-30 00:35 | -32.91287 | -60.05465 | 9006 ft | 159 kts | 157° |
| 2026-04-30 00:36 | -32.92209 | -60.04769 | 9005 ft | 159 kts | 157° |
| 2026-04-30 00:36 | -32.93140 | -60.04067 | 9003 ft | 158 kts | 157° |
| 2026-04-30 00:36 | -32.94073 | -60.03367 | 9003 ft | 158 kts | 157° |
| 2026-04-30 00:36 | -32.95006 | -60.02667 | 9003 ft | 158 kts | 157° |
| 2026-04-30 00:37 | -32.95940 | -60.01968 | 9003 ft | 158 kts | 157° |
| 2026-04-30 00:37 | -32.96871 | -60.01273 | 9003 ft | 158 kts | 157° |
| 2026-04-30 00:37 | -32.97807 | -60.00575 | 9003 ft | 158 kts | 157° |
| 2026-04-30 00:37 | -32.98740 | -59.99879 | 9000 ft | 158 kts | 157° |
| 2026-04-30 00:38 | -32.99672 | -59.99182 | 9003 ft | 158 kts | 157° |
| 2026-04-30 00:38 | -33.00606 | -59.98483 | 9003 ft | 158 kts | 157° |
| 2026-04-30 00:38 | -33.01540 | -59.97783 | 9003 ft | 158 kts | 157° |
| 2026-04-30 00:38 | -33.02471 | -59.97082 | 9003 ft | 158 kts | 157° |
| 2026-04-30 00:39 | -33.03402 | -59.96380 | 9003 ft | 158 kts | 157° |
| 2026-04-30 00:39 | -33.04321 | -59.95685 | 9003 ft | 158 kts | 157° |
| 2026-04-30 00:39 | -33.05251 | -59.94983 | 9004 ft | 158 kts | 157° |
| 2026-04-30 00:39 | -33.06183 | -59.94281 | 9007 ft | 158 kts | 157° |
| 2026-04-30 00:40 | -33.07114 | -59.93582 | 9002 ft | 158 kts | 157° |
| 2026-04-30 00:40 | -33.08046 | -59.92885 | 9004 ft | 158 kts | 157° |
| 2026-04-30 00:40 | -33.08978 | -59.92186 | 9004 ft | 158 kts | 157° |
| 2026-04-30 00:40 | -33.09906 | -59.91490 | 9014 ft | 158 kts | 157° |
| 2026-04-30 00:41 | -33.10845 | -59.90783 | 9001 ft | 160 kts | 157° |
| 2026-04-30 00:41 | -33.11784 | -59.90075 | 9000 ft | 160 kts | 157° |
| 2026-04-30 00:41 | -33.12726 | -59.89363 | 9000 ft | 160 kts | 157° |
| 2026-04-30 00:41 | -33.13664 | -59.88655 | 8999 ft | 160 kts | 157° |
| 2026-04-30 00:42 | -33.14608 | -59.87947 | 9007 ft | 160 kts | 157° |
| 2026-04-30 00:42 | -33.15555 | -59.87238 | 9000 ft | 160 kts | 157° |
| 2026-04-30 00:42 | -33.16499 | -59.86530 | 9000 ft | 160 kts | 157° |
| 2026-04-30 00:42 | -33.17431 | -59.85829 | 8997 ft | 160 kts | 157° |
| 2026-04-30 00:43 | -33.18373 | -59.85117 | 9001 ft | 160 kts | 156° |
| 2026-04-30 00:43 | -33.19313 | -59.84406 | 9002 ft | 160 kts | 156° |
| 2026-04-30 00:43 | -33.20256 | -59.83691 | 9003 ft | 160 kts | 156° |
| 2026-04-30 00:43 | -33.21196 | -59.82978 | 9003 ft | 160 kts | 156° |
| 2026-04-30 00:44 | -33.22136 | -59.82266 | 9003 ft | 160 kts | 156° |
| 2026-04-30 00:44 | -33.23092 | -59.81543 | 9003 ft | 160 kts | 156° |
| 2026-04-30 00:44 | -33.24021 | -59.80840 | 9003 ft | 160 kts | 156° |
| 2026-04-30 00:44 | -33.24964 | -59.80129 | 9003 ft | 160 kts | 156° |
| 2026-04-30 00:45 | -33.25907 | -59.79417 | 9005 ft | 160 kts | 156° |
| 2026-04-30 00:45 | -33.26851 | -59.78705 | 9003 ft | 160 kts | 156° |
| 2026-04-30 00:45 | -33.27794 | -59.77992 | 9003 ft | 160 kts | 156° |
| 2026-04-30 00:45 | -33.28741 | -59.77277 | 9003 ft | 160 kts | 156° |
| 2026-04-30 00:46 | -33.29685 | -59.76561 | 9000 ft | 161 kts | 156° |
| 2026-04-30 00:46 | -33.30633 | -59.75840 | 9002 ft | 161 kts | 157° |
| 2026-04-30 00:46 | -33.31579 | -59.75120 | 9000 ft | 161 kts | 157° |
| 2026-04-30 00:46 | -33.32526 | -59.74401 | 8998 ft | 161 kts | 157° |
| 2026-04-30 00:47 | -33.33473 | -59.73685 | 8999 ft | 161 kts | 157° |
| 2026-04-30 00:47 | -33.34419 | -59.72970 | 9002 ft | 161 kts | 157° |
| 2026-04-30 00:47 | -33.35365 | -59.72255 | 9004 ft | 161 kts | 157° |
| 2026-04-30 00:47 | -33.36298 | -59.71549 | 9004 ft | 161 kts | 157° |
| 2026-04-30 00:48 | -33.37241 | -59.70835 | 9002 ft | 161 kts | 157° |
| 2026-04-30 00:48 | -33.38188 | -59.70119 | 9002 ft | 160 kts | 157° |
| 2026-04-30 00:48 | -33.39142 | -59.69397 | 8999 ft | 161 kts | 157° |
| 2026-04-30 00:48 | -33.40074 | -59.68691 | 9002 ft | 161 kts | 157° |
| 2026-04-30 00:49 | -33.41015 | -59.67970 | 9002 ft | 161 kts | 156° |
| 2026-04-30 00:49 | -33.41956 | -59.67241 | 9002 ft | 161 kts | 156° |
| 2026-04-30 00:49 | -33.42899 | -59.66514 | 9002 ft | 161 kts | 156° |
| 2026-04-30 00:49 | -33.43842 | -59.65794 | 9002 ft | 161 kts | 157° |
| 2026-04-30 00:50 | -33.44786 | -59.65081 | 9000 ft | 161 kts | 157° |
| 2026-04-30 00:50 | -33.45736 | -59.64370 | 9002 ft | 160 kts | 157° |
| 2026-04-30 00:50 | -33.46699 | -59.63651 | 9002 ft | 160 kts | 157° |
| 2026-04-30 00:50 | -33.47645 | -59.62941 | 9001 ft | 160 kts | 157° |
| 2026-04-30 00:51 | -33.48590 | -59.62229 | 9007 ft | 161 kts | 157° |
| 2026-04-30 00:51 | -33.49525 | -59.61522 | 9005 ft | 161 kts | 157° |
| 2026-04-30 00:51 | -33.50475 | -59.60799 | 9004 ft | 161 kts | 157° |
| 2026-04-30 00:51 | -33.51418 | -59.60078 | 9005 ft | 161 kts | 156° |
| 2026-04-30 00:52 | -33.52363 | -59.59354 | 9001 ft | 162 kts | 156° |
| 2026-04-30 00:52 | -33.53312 | -59.58628 | 9001 ft | 162 kts | 156° |
| 2026-04-30 00:52 | -33.54264 | -59.57900 | 9001 ft | 162 kts | 156° |
| 2026-04-30 00:52 | -33.55203 | -59.57183 | 8999 ft | 162 kts | 156° |
| 2026-04-30 00:53 | -33.56154 | -59.56457 | 9001 ft | 162 kts | 156° |
| 2026-04-30 00:53 | -33.57102 | -59.55734 | 9001 ft | 162 kts | 157° |
| 2026-04-30 00:53 | -33.58055 | -59.55009 | 9002 ft | 162 kts | 157° |
| 2026-04-30 00:53 | -33.59004 | -59.54287 | 9002 ft | 162 kts | 157° |
| 2026-04-30 00:54 | -33.59953 | -59.53563 | 8997 ft | 162 kts | 157° |
| 2026-04-30 00:54 | -33.60902 | -59.52838 | 9000 ft | 162 kts | 157° |
| 2026-04-30 00:54 | -33.61852 | -59.52113 | 9000 ft | 162 kts | 157° |
| 2026-04-30 00:54 | -33.62804 | -59.51387 | 8996 ft | 162 kts | 157° |
| 2026-04-30 00:55 | -33.63754 | -59.50661 | 8999 ft | 162 kts | 156° |
| 2026-04-30 00:55 | -33.64706 | -59.49934 | 8999 ft | 162 kts | 157° |
| 2026-04-30 00:55 | -33.66608 | -59.48480 | 9002 ft | 162 kts | 157° |
| 2026-04-30 00:56 | -33.67559 | -59.47752 | 9008 ft | 162 kts | 156° |
| 2026-04-30 00:56 | -33.68512 | -59.47026 | 9001 ft | 162 kts | 157° |
| 2026-04-30 00:56 | -33.69466 | -59.46298 | 8999 ft | 162 kts | 156° |
| 2026-04-30 00:56 | -33.70416 | -59.45571 | 8998 ft | 162 kts | 156° |
| 2026-04-30 00:57 | -33.71354 | -59.44851 | 8998 ft | 162 kts | 156° |
| 2026-04-30 00:57 | -33.72307 | -59.44121 | 8997 ft | 162 kts | 156° |
| 2026-04-30 00:57 | -33.73250 | -59.43398 | 8998 ft | 161 kts | 156° |
| 2026-04-30 00:57 | -33.74197 | -59.42673 | 8998 ft | 161 kts | 156° |
| 2026-04-30 00:58 | -33.75146 | -59.41946 | 9001 ft | 161 kts | 156° |
| 2026-04-30 00:58 | -33.76094 | -59.41219 | 9000 ft | 161 kts | 156° |
| 2026-04-30 00:58 | -33.77041 | -59.40492 | 9018 ft | 160 kts | 156° |
| 2026-04-30 00:58 | -33.77982 | -59.39770 | 9013 ft | 161 kts | 156° |
| 2026-04-30 00:59 | -33.78928 | -59.39046 | 9007 ft | 161 kts | 156° |
| 2026-04-30 00:59 | -33.79874 | -59.38321 | 9003 ft | 162 kts | 156° |
| 2026-04-30 00:59 | -33.80827 | -59.37591 | 9001 ft | 162 kts | 156° |
| 2026-04-30 00:59 | -33.81775 | -59.36864 | 9001 ft | 161 kts | 156° |
| 2026-04-30 01:00 | -33.82708 | -59.36147 | 9002 ft | 161 kts | 156° |
| 2026-04-30 01:00 | -33.83655 | -59.35417 | 9003 ft | 161 kts | 156° |
| 2026-04-30 01:00 | -33.84600 | -59.34689 | 9003 ft | 161 kts | 156° |
| 2026-04-30 01:00 | -33.85545 | -59.33962 | 9003 ft | 161 kts | 156° |
| 2026-04-30 01:01 | -33.86491 | -59.33236 | 9005 ft | 162 kts | 156° |
| 2026-04-30 01:01 | -33.87123 | -59.32753 | 9003 ft | 162 kts | 156° |
| 2026-04-30 01:01 | -33.88394 | -59.31783 | 9001 ft | 162 kts | 156° |
| 2026-04-30 01:01 | -33.89345 | -59.31052 | 9001 ft | 162 kts | 156° |
| 2026-04-30 01:02 | -33.89975 | -59.30565 | 8998 ft | 162 kts | 156° |
| 2026-04-30 01:02 | -33.90924 | -59.29832 | 8998 ft | 162 kts | 156° |
| 2026-04-30 01:02 | -33.91876 | -59.29095 | 8998 ft | 162 kts | 156° |
| 2026-04-30 01:02 | -33.92828 | -59.28359 | 8998 ft | 162 kts | 156° |
| 2026-04-30 01:03 | -33.93781 | -59.27625 | 8999 ft | 162 kts | 156° |
| 2026-04-30 01:03 | -33.94728 | -59.26897 | 8998 ft | 162 kts | 156° |
| 2026-04-30 01:03 | -33.95678 | -59.26163 | 9003 ft | 162 kts | 156° |
| 2026-04-30 01:03 | -33.96629 | -59.25431 | 9009 ft | 162 kts | 156° |
| 2026-04-30 01:04 | -33.97577 | -59.24701 | 8999 ft | 162 kts | 156° |
| 2026-04-30 01:04 | -33.98530 | -59.23968 | 8998 ft | 162 kts | 156° |
| 2026-04-30 01:04 | -33.99480 | -59.23237 | 8998 ft | 162 kts | 156° |
| 2026-04-30 01:04 | -34.00434 | -59.22500 | 8998 ft | 162 kts | 156° |
| 2026-04-30 01:05 | -34.01382 | -59.21769 | 8999 ft | 162 kts | 156° |
| 2026-04-30 01:05 | -34.02332 | -59.21035 | 9000 ft | 162 kts | 156° |
| 2026-04-30 01:05 | -34.03284 | -59.20300 | 9000 ft | 162 kts | 156° |
| 2026-04-30 01:05 | -34.04233 | -59.19567 | 9000 ft | 162 kts | 156° |
| 2026-04-30 01:06 | -34.05184 | -59.18833 | 9006 ft | 162 kts | 156° |
| 2026-04-30 01:06 | -34.06126 | -59.18109 | 9002 ft | 162 kts | 156° |
| 2026-04-30 01:06 | -34.07077 | -59.17375 | 9001 ft | 162 kts | 156° |
| 2026-04-30 01:06 | -34.08036 | -59.16633 | 9001 ft | 162 kts | 156° |
| 2026-04-30 01:07 | -34.08973 | -59.15905 | 9002 ft | 162 kts | 156° |
| 2026-04-30 01:07 | -34.09922 | -59.15169 | 9001 ft | 162 kts | 156° |
| 2026-04-30 01:07 | -34.10874 | -59.14432 | 8998 ft | 162 kts | 156° |
| 2026-04-30 01:07 | -34.11825 | -59.13696 | 8917 ft | 166 kts | 156° |
| 2026-04-30 01:08 | -34.12816 | -59.12932 | 8683 ft | 171 kts | 155° |
| 2026-04-30 01:08 | -34.13815 | -59.12154 | 8474 ft | 171 kts | 155° |
| 2026-04-30 01:08 | -34.14806 | -59.11375 | 8245 ft | 170 kts | 155° |
| 2026-04-30 01:08 | -34.15806 | -59.10592 | 7985 ft | 171 kts | 155° |
| 2026-04-30 01:09 | -34.16802 | -59.09817 | 7773 ft | 169 kts | 155° |
| 2026-04-30 01:09 | -34.17797 | -59.09054 | 7524 ft | 170 kts | 155° |
| 2026-04-30 01:09 | -34.18796 | -59.08293 | 7322 ft | 168 kts | 155° |
| 2026-04-30 01:09 | -34.19778 | -59.07540 | 7121 ft | 167 kts | 155° |
| 2026-04-30 01:10 | -34.20766 | -59.06777 | 6895 ft | 168 kts | 155° |
| 2026-04-30 01:10 | -34.21735 | -59.06024 | 6703 ft | 167 kts | 154° |
| 2026-04-30 01:10 | -34.22718 | -59.05258 | 6449 ft | 170 kts | 154° |
| 2026-04-30 01:10 | -34.23710 | -59.04485 | 6259 ft | 168 kts | 154° |
| 2026-04-30 01:11 | -34.24682 | -59.03734 | 6059 ft | 166 kts | 154° |
| 2026-04-30 01:11 | -34.25664 | -59.02982 | 5824 ft | 167 kts | 153° |
| 2026-04-30 01:11 | -34.26640 | -59.02231 | 5626 ft | 166 kts | 153° |
| 2026-04-30 01:11 | -34.27613 | -59.01474 | 5422 ft | 166 kts | 152° |
| 2026-04-30 01:12 | -34.28561 | -59.00730 | 5390 ft | 155 kts | 152° |
| 2026-04-30 01:12 | -34.29440 | -59.00034 | 5385 ft | 149 kts | 152° |
| 2026-04-30 01:12 | -34.30333 | -58.99337 | 5219 ft | 154 kts | 152° |
| 2026-04-30 01:12 | -34.31216 | -58.98653 | 5144 ft | 152 kts | 152° |
| 2026-04-30 01:13 | -34.32118 | -58.97952 | 5056 ft | 152 kts | 152° |
| 2026-04-30 01:13 | -34.33006 | -58.97260 | 4970 ft | 152 kts | 152° |
| 2026-04-30 01:13 | -34.33895 | -58.96568 | 4885 ft | 151 kts | 151° |
| 2026-04-30 01:13 | -34.34780 | -58.95878 | 4807 ft | 151 kts | 151° |
| 2026-04-30 01:14 | -34.35661 | -58.95189 | 4724 ft | 151 kts | 151° |
| 2026-04-30 01:14 | -34.36530 | -58.94507 | 4648 ft | 150 kts | 150° |
| 2026-04-30 01:14 | -34.37406 | -58.93816 | 4571 ft | 150 kts | 151° |
| 2026-04-30 01:14 | -34.38282 | -58.93127 | 4496 ft | 150 kts | 151° |
| 2026-04-30 01:15 | -34.39154 | -58.92441 | 4428 ft | 150 kts | 151° |
| 2026-04-30 01:15 | -34.40030 | -58.91760 | 4356 ft | 149 kts | 151° |
| 2026-04-30 01:15 | -34.40904 | -58.91084 | 4287 ft | 149 kts | 151° |
| 2026-04-30 01:15 | -34.41776 | -58.90407 | 4219 ft | 149 kts | 151° |
| 2026-04-30 01:16 | -34.42649 | -58.89732 | 4149 ft | 148 kts | 151° |
| 2026-04-30 01:16 | -34.43509 | -58.89062 | 4076 ft | 148 kts | 150° |
| 2026-04-30 01:16 | -34.44372 | -58.88384 | 4010 ft | 147 kts | 150° |
| 2026-04-30 01:16 | -34.45229 | -58.87708 | 3945 ft | 147 kts | 150° |
| 2026-04-30 01:17 | -34.46088 | -58.87032 | 3887 ft | 146 kts | 150° |
| 2026-04-30 01:17 | -34.46953 | -58.86353 | 3773 ft | 149 kts | 150° |
| 2026-04-30 01:17 | -34.47821 | -58.85673 | 3710 ft | 147 kts | 151° |
| 2026-04-30 01:17 | -34.48683 | -58.85000 | 3566 ft | 152 kts | 151° |
| 2026-04-30 01:18 | -34.49581 | -58.84299 | 3476 ft | 150 kts | 151° |
| 2026-04-30 01:18 | -34.50449 | -58.83620 | 3363 ft | 151 kts | 151° |
| 2026-04-30 01:18 | -34.51332 | -58.82927 | 3257 ft | 151 kts | 151° |
| 2026-04-30 01:18 | -34.52208 | -58.82241 | 3183 ft | 150 kts | 151° |
| 2026-04-30 01:19 | -34.53097 | -58.81543 | 2959 ft | 153 kts | 151° |
| 2026-04-30 01:19 | -34.53977 | -58.80844 | 2810 ft | 149 kts | 151° |
| 2026-04-30 01:19 | -34.54859 | -58.80149 | 2573 ft | 152 kts | 151° |
| 2026-04-30 01:19 | -34.55744 | -58.79454 | 2398 ft | 150 kts | 151° |
| 2026-04-30 01:20 | -34.56540 | -58.78656 | 2169 ft | 152 kts | 128° |
| 2026-04-30 01:20 | -34.56779 | -58.77435 | 2075 ft | 151 kts | 89° |
| 2026-04-30 01:20 | -34.56607 | -58.76159 | 2011 ft | 148 kts | 83° |
| 2026-04-30 01:20 | -34.56426 | -58.74956 | 2015 ft | 144 kts | 83° |
| 2026-04-30 01:21 | -34.56254 | -58.73773 | 2017 ft | 141 kts | 84° |
| 2026-04-30 01:21 | -34.56091 | -58.72608 | 1995 ft | 140 kts | 83° |
| 2026-04-30 01:21 | -34.55784 | -58.71485 | 1809 ft | 146 kts | 60° |
| 2026-04-30 01:21 | -34.55085 | -58.70602 | 1753 ft | 142 kts | 46° |
| 2026-04-30 01:22 | -34.54406 | -58.69785 | 1804 ft | 133 kts | 45° |
| 2026-04-30 01:22 | -34.53762 | -58.69010 | 1838 ft | 131 kts | 45° |
| 2026-04-30 01:22 | -34.53121 | -58.68239 | 1894 ft | 128 kts | 46° |
| 2026-04-30 01:22 | -34.52486 | -58.67474 | 1891 ft | 129 kts | 46° |
| 2026-04-30 01:23 | -34.51875 | -58.66736 | 1856 ft | 119 kts | 46° |
| 2026-04-30 01:23 | -34.51275 | -58.66023 | 1754 ft | 117 kts | 43° |
| 2026-04-30 01:23 | -34.50675 | -58.65354 | 1683 ft | 119 kts | 43° |
| 2026-04-30 01:23 | -34.50072 | -58.64661 | 1560 ft | 120 kts | 44° |
| 2026-04-30 01:24 | -34.49450 | -58.63973 | 1425 ft | 122 kts | 43° |
| 2026-04-30 01:24 | -34.48821 | -58.63257 | 1237 ft | 125 kts | 44° |
| 2026-04-30 01:24 | -34.48221 | -58.62549 | 1010 ft | 116 kts | 46° |
| 2026-04-30 01:24 | -34.47668 | -58.61853 | 747 ft | 114 kts | 49° |
| 2026-04-30 01:25 | -34.47165 | -58.61129 | 516 ft | 108 kts | 50° |
| 2026-04-30 01:25 | -34.46660 | -58.60508 | 297 ft | 99 kts | 42° |
| 2026-04-30 01:25 | -34.46187 | -58.59957 | 119 ft | 90 kts | 44° |
| 2026-04-30 01:25 | -34.45773 | -58.59471 | 19 ft | 75 kts | 43° |
| 2026-04-30 01:26 | -34.45483 | -58.59128 | 14 ft | 37 kts | 45° |
| 2026-04-30 01:26 | -34.45326 | -58.58938 | 14 ft | 32 kts | 45° |
| 2026-04-30 01:26 | -34.45163 | -58.58748 | 14 ft | 36 kts | 43° |
| 2026-04-30 01:26 | -34.45009 | -58.58563 | 13 ft | 26 kts | 43° |
| 2026-04-30 01:27 | -34.44881 | -58.58413 | 11 ft | 15 kts | 46° |
| 2026-04-30 01:27 | -34.44861 | -58.58325 | 12 ft | 13 kts | 122° |
| 2026-04-30 01:27 | -34.44916 | -58.58267 | 12 ft | 7 kts | 149° |
| 2026-04-30 01:27 | -34.44945 | -58.58245 | 12 ft | 6 kts | 148° |
| 2026-04-30 01:28 | -34.45004 | -58.58201 | 12 ft | 16 kts | 149° |
| 2026-04-30 01:28 | -34.45103 | -58.58131 | 12 ft | 17 kts | 149° |
| 2026-04-30 01:28 | -34.45179 | -58.58075 | 12 ft | 9 kts | 149° |
| 2026-04-30 01:28 | -34.45184 | -58.58071 | 12 ft | 0 kts | 151° |
| 2026-04-30 01:29 | -34.45263 | -58.58018 | 12 ft | 17 kts | 148° |
| 2026-04-30 01:29 | -34.45332 | -58.57984 | 12 ft | 7 kts | 226° |
| 2026-04-30 01:30 | -34.45383 | -58.58099 | 13 ft | 23 kts | 242° |
| 2026-04-30 01:30 | -34.45449 | -58.58251 | 13 ft | 23 kts | 241° |
| 2026-04-30 01:30 | -34.45497 | -58.58358 | 13 ft | 3 kts | 241° |
| 2026-04-30 01:30 | -34.45522 | -58.58359 | 13 ft | 3 kts | 149° |
| 2026-04-30 01:31 | -34.45534 | -58.58350 | 13 ft | 0 kts | 153° |
| 2026-04-30 01:31 | -34.45541 | -58.58352 | 13 ft | 0 kts | 233° |